createdAt,value
2017-02-22T00:03:12.635Z,0
2017-02-22T00:08:09.196Z,0
2017-02-22T00:13:06.376Z,0
2017-02-22T00:18:03.190Z,0
2017-02-22T00:22:59.523Z,0
2017-02-22T00:27:56.783Z,0
2017-02-22T00:32:53.134Z,0
2017-02-22T00:37:52.312Z,0
2017-02-22T00:42:48.276Z,0
2017-02-22T00:47:44.833Z,0
2017-02-22T00:52:41.269Z,0
2017-02-22T00:57:38.995Z,0
2017-02-22T01:02:35.831Z,0
2017-02-22T01:07:32.494Z,0
2017-02-22T01:12:28.903Z,0
2017-02-22T01:17:25.559Z,0
2017-02-22T01:22:21.890Z,0
2017-02-22T01:27:18.694Z,0
2017-02-22T01:32:14.912Z,0
2017-02-22T01:37:11.376Z,0
2017-02-22T01:42:08.033Z,0
2017-02-22T01:47:06.259Z,0
2017-02-22T01:52:02.433Z,0
2017-02-22T01:57:02.322Z,0
2017-02-22T02:01:58.463Z,0
2017-02-22T02:06:55.535Z,0
2017-02-22T02:11:51.971Z,0
2017-02-22T02:16:48.400Z,0
2017-02-22T02:21:44.911Z,0
2017-02-22T02:26:41.574Z,0
2017-02-22T02:31:40.496Z,0
2017-02-22T02:36:37.783Z,0
2017-02-22T02:41:34.274Z,0
2017-02-22T02:46:30.616Z,0
2017-02-22T02:51:28.261Z,0
2017-02-22T02:56:24.839Z,0
2017-02-22T03:01:23.212Z,0
2017-02-22T03:06:19.619Z,0
2017-02-22T03:11:16.009Z,0
2017-02-22T03:16:14.137Z,0
2017-02-22T03:21:10.358Z,0
2017-02-22T03:26:06.865Z,0
2017-02-22T03:31:03.463Z,0
2017-02-22T03:36:00.055Z,0
2017-02-22T03:40:57.243Z,0
2017-02-22T03:45:53.479Z,0
2017-02-22T03:50:50.004Z,0
2017-02-22T03:55:47.062Z,0
2017-02-22T04:00:43.397Z,0
2017-02-22T04:05:39.426Z,0
2017-02-22T04:10:36.258Z,0
2017-02-22T04:15:33.960Z,0
2017-02-22T04:20:29.954Z,0
2017-02-22T04:25:26.541Z,0
2017-02-22T04:30:23.437Z,0
2017-02-22T04:35:19.619Z,0
2017-02-22T04:40:16.224Z,0
2017-02-22T04:45:12.318Z,0
2017-02-22T04:50:08.919Z,0
2017-02-22T04:55:05.436Z,0
2017-02-22T05:00:03.205Z,0
2017-02-22T05:05:00.601Z,0
2017-02-22T05:09:56.825Z,0
2017-02-22T05:14:52.842Z,0
2017-02-22T05:19:49.559Z,0
2017-02-22T05:24:46.599Z,0
2017-02-22T05:29:43.005Z,0
2017-02-22T05:34:39.578Z,0
2017-02-22T05:39:35.939Z,0
2017-02-22T05:44:35.739Z,0
2017-02-22T05:49:31.822Z,0
2017-02-22T05:54:28.451Z,0
2017-02-22T05:59:24.892Z,0
2017-02-22T06:04:21.259Z,0
2017-02-22T06:09:17.667Z,4
2017-02-22T06:14:14.750Z,8
2017-02-22T06:19:11.165Z,12
2017-02-22T06:24:07.609Z,16
2017-02-22T06:29:03.913Z,24
2017-02-22T06:34:00.644Z,36
2017-02-22T06:38:57.119Z,64
2017-02-22T06:43:53.834Z,120
2017-02-22T06:48:50.256Z,168
2017-02-22T06:53:47.820Z,228
2017-02-22T06:58:43.922Z,276
2017-02-22T07:03:41.191Z,308
2017-02-22T07:08:37.638Z,444
2017-02-22T07:13:34.212Z,456
2017-02-22T07:18:30.506Z,540
2017-02-22T07:23:27.251Z,544
2017-02-22T07:28:23.892Z,512
2017-02-22T07:33:20.535Z,484
2017-02-22T07:38:16.710Z,612
2017-02-22T07:43:13.555Z,796
2017-02-22T07:48:10.063Z,1324
2017-02-22T07:53:06.516Z,1080
2017-02-22T07:58:02.640Z,1284
2017-02-22T08:02:59.279Z,1324
2017-02-22T08:07:55.738Z,816
2017-02-22T08:12:52.304Z,1032
2017-02-22T08:17:48.625Z,1928
2017-02-22T08:22:45.063Z,1920
2017-02-22T08:27:41.462Z,1632
2017-02-22T08:32:39.747Z,1584
2017-02-22T08:37:36.473Z,1140
2017-02-22T08:42:33.031Z,1040
2017-02-22T08:47:29.792Z,1600
2017-02-22T08:52:26.168Z,1784
2017-02-22T08:57:22.822Z,1644
2017-02-22T09:02:19.280Z,1860
2017-02-22T09:07:15.775Z,1796
2017-02-22T09:12:12.245Z,1672
2017-02-22T09:17:08.576Z,1876
2017-02-22T09:22:05.136Z,2288
2017-02-22T09:27:01.673Z,2120
2017-02-22T09:31:58.185Z,2956
2017-02-22T09:36:54.816Z,3328
2017-02-22T09:41:51.305Z,2680
2017-02-22T09:46:51.322Z,2448
2017-02-22T09:51:46.816Z,2996
2017-02-22T09:56:43.622Z,1772
2017-02-22T10:01:40.121Z,2104
2017-02-22T10:06:36.787Z,1648
2017-02-22T10:11:33.304Z,2144
2017-02-22T10:16:30.980Z,2692
2017-02-22T10:21:27.317Z,2232
2017-02-22T10:26:23.887Z,3020
2017-02-22T10:31:20.269Z,1900
2017-02-22T10:36:16.625Z,2616
2017-02-22T10:41:13.925Z,2756
2017-02-22T10:46:10.283Z,2580
2017-02-22T10:51:07.275Z,2816
2017-02-22T10:56:03.859Z,2664
2017-02-22T11:01:00.241Z,2124
2017-02-22T11:05:56.630Z,1240
2017-02-22T11:10:53.067Z,3004
2017-02-22T11:15:49.627Z,2600
2017-02-22T11:20:46.226Z,4300
2017-02-22T11:25:42.895Z,2368
2017-02-22T11:30:40.003Z,2732
2017-02-22T11:35:36.527Z,2488
2017-02-22T11:40:33.003Z,2612
2017-02-22T11:45:30.456Z,2940
2017-02-22T11:50:26.670Z,2436
2017-02-22T11:55:23.127Z,2244
2017-02-22T12:00:18.936Z,2072
2017-02-22T12:05:15.423Z,2544
2017-02-22T12:10:12.309Z,3156
2017-02-22T12:15:08.773Z,2372
2017-02-22T12:20:05.544Z,4404
2017-02-22T12:25:03.328Z,1960
2017-02-22T12:29:59.467Z,2748
2017-02-22T12:34:55.996Z,3836
2017-02-22T12:39:52.429Z,4208
2017-02-22T12:44:49.443Z,2844
2017-02-22T12:49:45.503Z,2308
2017-02-22T12:54:43.241Z,3012
2017-02-22T12:59:39.549Z,3072
2017-02-22T13:04:35.819Z,2244
2017-02-22T13:09:32.796Z,1956
2017-02-22T13:14:29.288Z,2200
2017-02-22T13:19:26.109Z,2152
2017-02-22T13:24:22.883Z,2312
2017-02-22T13:29:19.374Z,2716
2017-02-22T13:34:16.122Z,1532
2017-02-22T13:39:12.363Z,1456
2017-02-22T13:44:08.890Z,2244
2017-02-22T13:49:05.647Z,2032
2017-02-22T13:54:02.233Z,1824
2017-02-22T13:58:58.641Z,1688
2017-02-22T14:03:54.936Z,1368
2017-02-22T14:08:52.795Z,1968
2017-02-22T14:13:49.184Z,1560
2017-02-22T14:18:45.819Z,1252
2017-02-22T14:23:42.296Z,956
2017-02-22T14:28:38.851Z,780
2017-02-22T14:33:35.629Z,604
2017-02-22T14:38:32.016Z,416
2017-02-22T14:43:28.276Z,508
2017-02-22T14:48:25.088Z,712
2017-02-22T14:53:22.133Z,736
2017-02-22T14:58:18.801Z,984
2017-02-22T15:03:15.438Z,780
2017-02-22T15:08:12.350Z,684
2017-02-22T15:13:08.303Z,752
2017-02-22T15:18:04.300Z,940
2017-02-22T15:23:01.284Z,796
2017-02-22T15:27:57.974Z,812
2017-02-22T15:32:53.859Z,740
2017-02-22T15:37:49.825Z,488
2017-02-22T15:42:48.241Z,488
2017-02-22T15:47:44.676Z,452
2017-02-22T15:52:41.249Z,408
2017-02-22T15:57:38.014Z,532
2017-02-22T16:02:34.345Z,404
2017-02-22T16:07:32.078Z,364
2017-02-22T16:12:28.599Z,392
2017-02-22T16:17:25.085Z,360
2017-02-22T16:22:21.158Z,296
2017-02-22T16:27:17.471Z,256
2017-02-22T16:32:14.596Z,196
2017-02-22T16:37:11.869Z,164
2017-02-22T16:42:08.189Z,96
2017-02-22T16:47:06.680Z,64
2017-02-22T16:52:02.523Z,44
2017-02-22T16:56:59.030Z,44
2017-02-22T17:01:55.415Z,32
2017-02-22T17:06:52.733Z,20
2017-02-22T17:11:50.045Z,8
2017-02-22T17:16:46.374Z,4
2017-02-22T17:21:42.773Z,0
2017-02-22T17:26:41.969Z,0
2017-02-22T17:31:37.756Z,0
2017-02-22T17:36:34.476Z,0
2017-02-22T17:41:30.773Z,0
2017-02-22T17:46:27.654Z,0
2017-02-22T17:51:24.954Z,0
2017-02-22T17:56:22.116Z,0
2017-02-22T18:01:18.586Z,0
2017-02-22T18:06:15.792Z,0
2017-02-22T18:11:14.366Z,0
2017-02-22T18:16:10.400Z,0
2017-02-22T18:21:08.721Z,0
2017-02-22T18:26:04.868Z,0
2017-02-22T18:31:01.392Z,0
2017-02-22T18:35:57.939Z,0
2017-02-22T18:40:54.369Z,0
2017-02-22T18:45:50.699Z,0
2017-02-22T18:50:48.033Z,0
2017-02-22T18:55:44.953Z,0
2017-02-22T19:00:41.421Z,0
2017-02-22T19:05:37.933Z,0
2017-02-22T19:10:34.284Z,0
2017-02-22T19:15:33.282Z,0
2017-02-22T19:20:29.117Z,0
2017-02-22T19:25:25.650Z,0
2017-02-22T19:30:22.141Z,0
2017-02-22T19:35:18.756Z,0
2017-02-22T19:40:15.297Z,0
2017-02-22T19:45:12.045Z,0
2017-02-22T19:50:08.816Z,0
2017-02-22T19:55:05.287Z,0
2017-02-22T20:00:01.780Z,0
2017-02-22T20:04:58.077Z,0
2017-02-22T20:09:54.531Z,0
2017-02-22T20:14:51.107Z,0
2017-02-22T20:19:47.786Z,0
2017-02-22T20:24:44.276Z,0
2017-02-22T20:29:41.751Z,0
2017-02-22T20:34:38.074Z,0
2017-02-22T20:39:35.074Z,0
2017-02-22T20:44:31.575Z,0
2017-02-22T20:49:28.180Z,0
2017-02-22T20:54:25.255Z,0
2017-02-22T20:59:21.659Z,0
2017-02-22T21:04:18.156Z,0
2017-02-22T21:09:14.607Z,0
2017-02-22T21:14:11.744Z,0
2017-02-22T21:19:08.177Z,0
2017-02-22T21:24:04.770Z,0
2017-02-22T21:29:01.566Z,0
2017-02-22T21:33:58.188Z,0
2017-02-22T21:38:54.576Z,0
2017-02-22T21:43:51.707Z,0
2017-02-22T21:48:48.222Z,0
2017-02-22T21:53:45.537Z,0
2017-02-22T21:58:41.582Z,0
2017-02-22T22:03:37.940Z,0
2017-02-22T22:08:34.407Z,0
2017-02-22T22:13:31.225Z,0
2017-02-22T22:18:28.248Z,0
2017-02-22T22:23:24.385Z,0
2017-02-22T22:28:20.938Z,0
2017-02-22T22:33:17.197Z,0
2017-02-22T22:38:14.307Z,0
2017-02-22T22:43:11.091Z,0
2017-02-22T22:48:08.279Z,0
2017-02-22T22:53:04.391Z,0
2017-02-22T22:58:01.060Z,0
2017-02-22T23:02:58.440Z,0
2017-02-22T23:07:54.618Z,0
2017-02-22T23:12:50.917Z,0
2017-02-22T23:17:47.664Z,0
2017-02-22T23:22:44.461Z,0
2017-02-22T23:27:40.859Z,0
2017-02-22T23:32:37.098Z,0
2017-02-22T23:37:33.799Z,0
2017-02-22T23:42:30.096Z,0
2017-02-22T23:47:27.236Z,0
2017-02-22T23:52:23.814Z,0
2017-02-22T23:57:19.851Z,0
